createdAt,value
2023-01-11T00:02:24.312Z,8.59
2023-01-11T00:04:52.059Z,8.62
2023-01-11T00:07:19.783Z,8.63
2023-01-11T00:09:47.963Z,8.65
2023-01-11T00:12:17.067Z,8.67
2023-01-11T00:14:44.936Z,8.70
2023-01-11T00:17:12.647Z,8.71
2023-01-11T00:19:40.419Z,8.71
2023-01-11T00:22:08.189Z,8.73
2023-01-11T00:24:35.861Z,8.81
2023-01-11T00:27:03.548Z,8.79
2023-01-11T00:29:32.594Z,8.80
2023-01-11T00:32:00.305Z,8.80
2023-01-11T00:34:29.002Z,8.80
2023-01-11T00:36:56.771Z,8.82
2023-01-11T00:39:24.478Z,8.88
2023-01-11T00:42:09.623Z,8.91
2023-01-11T00:44:56.251Z,8.93
2023-01-11T00:47:41.547Z,8.95
2023-01-11T00:50:10.420Z,8.96
2023-01-11T00:52:38.102Z,8.97
2023-01-11T00:55:06.738Z,9.00
2023-01-11T00:57:34.483Z,9.03
2023-01-11T01:00:03.914Z,9.07
2023-01-11T01:02:33.833Z,9.07
2023-01-11T01:05:01.678Z,9.10
2023-01-11T01:07:29.393Z,9.12
2023-01-11T01:09:57.088Z,9.14
2023-01-11T01:12:38.661Z,9.15
2023-01-11T01:15:09.141Z,9.16
2023-01-11T01:17:36.860Z,9.18
2023-01-11T01:20:05.220Z,9.24
2023-01-11T01:22:33.173Z,9.29
2023-01-11T01:25:00.836Z,9.29
2023-01-11T01:27:28.550Z,9.30
2023-01-11T01:29:56.288Z,9.29
2023-01-11T01:32:25.387Z,9.32
2023-01-11T01:34:53.117Z,9.34
2023-01-11T01:37:20.752Z,9.35
2023-01-11T01:39:48.429Z,9.35
2023-01-11T01:42:17.306Z,9.39
2023-01-11T01:44:58.226Z,9.40
2023-01-11T01:47:33.067Z,9.40
2023-01-11T01:50:04.262Z,9.40
2023-01-11T01:52:34.703Z,9.42
2023-01-11T01:55:06.663Z,9.42
2023-01-11T01:57:38.649Z,9.41
2023-01-11T02:00:09.299Z,9.42
2023-01-11T02:02:40.062Z,9.40
2023-01-11T02:05:09.619Z,9.41
2023-01-11T02:07:40.578Z,9.42
2023-01-11T02:10:13.872Z,9.41
2023-01-11T02:12:46.042Z,9.37
2023-01-11T02:15:14.410Z,9.37
2023-01-11T02:17:43.411Z,9.33
2023-01-11T02:20:47.102Z,9.33
2023-01-11T02:24:00.931Z,9.36
2023-01-11T02:27:19.750Z,9.39
2023-01-11T02:29:59.146Z,9.38
2023-01-11T02:32:33.365Z,9.39
2023-01-11T02:35:13.972Z,9.38
2023-01-11T02:37:51.926Z,9.41
2023-01-11T02:40:25.611Z,9.42
2023-01-11T02:43:15.331Z,9.44
2023-01-11T02:45:53.552Z,9.48
2023-01-11T02:48:29.515Z,9.48
2023-01-11T02:51:05.341Z,9.48
2023-01-11T02:53:38.775Z,9.48
2023-01-11T02:56:11.248Z,9.51
2023-01-11T02:58:40.722Z,9.47
2023-01-11T03:01:10.731Z,9.47
2023-01-11T03:03:38.390Z,9.49
2023-01-11T03:06:12.927Z,9.49
2023-01-11T03:09:13.747Z,9.51
2023-01-11T03:12:09.753Z,9.51
2023-01-11T03:14:47.502Z,9.49
2023-01-11T03:17:32.320Z,9.47
2023-01-11T03:20:08.524Z,9.46
2023-01-11T03:22:45.002Z,9.49
2023-01-11T03:25:22.161Z,9.48
2023-01-11T03:27:56.572Z,9.47
2023-01-11T03:30:30.815Z,9.49
2023-01-11T03:33:04.777Z,9.47
2023-01-11T03:35:40.762Z,9.51
2023-01-11T03:38:16.449Z,9.49
2023-01-11T03:40:49.270Z,9.51
2023-01-11T03:43:20.361Z,9.53
2023-01-11T03:45:53.388Z,9.56
2023-01-11T03:48:26.540Z,9.60
2023-01-11T03:50:56.351Z,9.59
2023-01-11T03:53:26.608Z,9.61
2023-01-11T03:55:57.076Z,9.63
2023-01-11T03:58:26.901Z,9.63
2023-01-11T04:00:56.077Z,9.63
2023-01-11T04:03:27.160Z,9.65
2023-01-11T04:06:00.376Z,9.67
2023-01-11T04:08:28.569Z,9.68
2023-01-11T04:10:56.997Z,9.70
2023-01-11T04:13:24.757Z,9.71
2023-01-11T04:15:53.845Z,9.72
2023-01-11T04:18:21.528Z,9.75
2023-01-11T04:20:50.618Z,9.78
2023-01-11T04:23:18.274Z,9.81
2023-01-11T04:25:46.956Z,9.83
2023-01-11T04:28:14.718Z,9.85
2023-01-11T04:30:42.458Z,9.85
2023-01-11T04:33:13.087Z,9.87
2023-01-11T04:35:40.935Z,9.91
2023-01-11T04:38:09.974Z,9.93
2023-01-11T04:40:37.631Z,9.96
2023-01-11T04:43:04.335Z,9.98
2023-01-11T04:45:32.302Z,10.01
2023-01-11T04:48:00.176Z,10.03
2023-01-11T04:50:28.677Z,10.06
2023-01-11T04:52:56.456Z,10.07
2023-01-11T04:55:25.556Z,10.11
2023-01-11T04:57:53.241Z,10.18
2023-01-11T05:00:21.481Z,10.20
2023-01-11T05:02:49.158Z,10.24
2023-01-11T05:05:16.825Z,10.28
2023-01-11T05:07:44.449Z,10.31
2023-01-11T05:10:12.662Z,10.42
2023-01-11T05:12:41.683Z,10.42
2023-01-11T05:15:10.574Z,10.42
2023-01-11T05:17:38.265Z,10.45
2023-01-11T05:20:08.224Z,10.46
2023-01-11T05:22:35.929Z,10.48
2023-01-11T05:25:03.641Z,10.51
2023-01-11T05:27:31.333Z,10.53
2023-01-11T05:30:00.461Z,10.54
2023-01-11T05:32:28.173Z,10.55
2023-01-11T05:34:55.920Z,10.55
2023-01-11T05:37:23.660Z,10.56
2023-01-11T05:39:51.373Z,10.57
2023-01-11T05:42:19.132Z,10.61
2023-01-11T05:45:04.344Z,10.64
2023-01-11T05:47:33.492Z,10.66
2023-01-11T05:50:01.240Z,10.72
2023-01-11T05:52:29.089Z,10.79
2023-01-11T05:54:56.782Z,10.85
2023-01-11T05:57:24.445Z,10.89
2023-01-11T05:59:52.153Z,10.89
2023-01-11T06:02:19.977Z,10.91
2023-01-11T06:04:49.157Z,10.96
2023-01-11T06:07:16.916Z,10.96
2023-01-11T06:09:44.669Z,10.99
2023-01-11T06:12:12.366Z,11.00
2023-01-11T06:14:40.113Z,11.03
2023-01-11T06:17:07.838Z,11.05
2023-01-11T06:19:35.687Z,11.14
2023-01-11T06:22:04.784Z,11.16
2023-01-11T06:24:32.510Z,11.19
2023-01-11T06:27:00.203Z,11.18
2023-01-11T06:29:27.886Z,11.19
2023-01-11T06:31:55.553Z,11.18
2023-01-11T06:34:23.264Z,11.23
2023-01-11T06:36:50.997Z,11.27
2023-01-11T06:39:20.235Z,11.25
2023-01-11T06:41:47.938Z,11.22
2023-01-11T06:44:15.595Z,11.23
2023-01-11T06:46:43.328Z,11.24
2023-01-11T06:49:11.925Z,11.21
2023-01-11T06:51:42.657Z,11.25
2023-01-11T06:54:10.368Z,11.25
2023-01-11T06:56:39.485Z,11.24
2023-01-11T06:59:07.255Z,11.28
2023-01-11T07:01:35.141Z,11.25
2023-01-11T07:04:02.897Z,11.29
2023-01-11T07:06:32.018Z,11.29
2023-01-11T07:08:59.715Z,11.29
2023-01-11T07:11:27.415Z,11.31
2023-01-11T07:13:56.547Z,11.30
2023-01-11T07:16:24.282Z,11.32
2023-01-11T07:18:51.939Z,11.32
2023-01-11T07:21:19.626Z,11.32
2023-01-11T07:23:48.775Z,11.34
2023-01-11T07:26:17.229Z,11.35
2023-01-11T07:28:45.355Z,11.34
2023-01-11T07:31:14.545Z,11.34
2023-01-11T07:33:42.248Z,11.36
2023-01-11T07:36:10.262Z,11.35
2023-01-11T07:38:37.947Z,11.35
2023-01-11T07:41:25.802Z,11.37
2023-01-11T07:43:52.678Z,11.37
2023-01-11T07:46:21.837Z,11.36
2023-01-11T07:48:49.773Z,11.37
2023-01-11T07:51:20.405Z,11.39
2023-01-11T07:53:48.421Z,11.40
2023-01-11T07:56:16.208Z,11.40
2023-01-11T07:58:43.930Z,11.40
2023-01-11T08:01:11.993Z,11.42
2023-01-11T08:03:41.157Z,11.40
2023-01-11T08:06:09.168Z,11.40
2023-01-11T08:08:36.850Z,11.39
2023-01-11T08:11:22.031Z,11.43
2023-01-11T08:14:07.361Z,11.43
2023-01-11T08:16:35.152Z,11.41
2023-01-11T08:19:04.296Z,11.43
2023-01-11T08:21:32.280Z,11.42
2023-01-11T08:24:00.478Z,11.39
2023-01-11T08:26:28.690Z,11.35
2023-01-11T08:28:56.627Z,11.24
2023-01-11T08:31:24.631Z,11.28
2023-01-11T08:33:52.863Z,11.25
2023-01-11T08:36:24.362Z,11.23
2023-01-11T08:38:55.347Z,11.21
2023-01-11T08:41:26.558Z,11.23
2023-01-11T08:43:54.714Z,11.24
2023-01-11T08:46:22.517Z,11.22
2023-01-11T08:48:50.254Z,11.21
2023-01-11T08:51:18.503Z,11.23
2023-01-11T08:53:47.558Z,11.27
2023-01-11T08:56:15.346Z,11.28
2023-01-11T08:58:43.051Z,11.25
2023-01-11T09:01:12.090Z,11.24
2023-01-11T09:03:39.878Z,11.24
2023-01-11T09:06:08.355Z,11.27
2023-01-11T09:08:36.093Z,11.27
2023-01-11T09:11:25.239Z,11.30
2023-01-11T09:13:52.887Z,11.30
2023-01-11T09:16:20.591Z,11.31
2023-01-11T09:18:48.334Z,11.30
2023-01-11T09:21:16.085Z,11.31
2023-01-11T09:23:45.166Z,11.26
2023-01-11T09:26:15.081Z,11.27
2023-01-11T09:28:43.169Z,11.25
2023-01-11T09:31:10.933Z,11.25
2023-01-11T09:33:39.245Z,11.27
2023-01-11T09:36:07.833Z,11.21
2023-01-11T09:38:37.925Z,11.21
2023-01-11T09:41:23.211Z,11.15
2023-01-11T09:44:04.545Z,11.16
2023-01-11T09:46:33.813Z,11.15
2023-01-11T09:49:03.467Z,11.15
2023-01-11T09:51:37.441Z,11.16
2023-01-11T09:54:07.707Z,11.13
2023-01-11T09:56:42.404Z,11.12
2023-01-11T09:59:20.884Z,11.16
2023-01-11T10:01:54.402Z,11.20
2023-01-11T10:04:41.704Z,11.22
2023-01-11T10:07:23.034Z,11.22
2023-01-11T10:18:27.479Z,11.15
2023-01-11T10:19:33.571Z,11.09
2023-01-11T10:22:00.216Z,11.13
2023-01-11T10:24:32.938Z,11.06
2023-01-11T10:27:04.530Z,11.10
2023-01-11T10:29:46.157Z,11.09
2023-01-11T10:32:45.623Z,11.15
2023-01-11T10:35:41.553Z,11.15
2023-01-11T10:38:31.548Z,11.20
2023-01-11T10:41:08.419Z,11.20
2023-01-11T10:43:41.451Z,11.18
2023-01-11T10:46:14.112Z,11.19
2023-01-11T10:48:45.275Z,11.19
2023-01-11T10:51:24.803Z,11.21
2023-01-11T10:54:02.827Z,11.23
2023-01-11T10:57:03.584Z,11.28
2023-01-11T10:59:50.916Z,11.29
2023-01-11T11:02:34.177Z,11.30
2023-01-11T11:05:14.681Z,11.34
2023-01-11T11:07:51.945Z,11.34
2023-01-11T11:10:24.911Z,11.35
2023-01-11T11:13:03.541Z,11.28
2023-01-11T11:15:39.154Z,11.28
2023-01-11T11:18:06.913Z,11.32
2023-01-11T11:20:36.218Z,11.38
2023-01-11T11:23:04.024Z,11.38
2023-01-11T11:25:34.076Z,11.45
2023-01-11T11:28:04.702Z,11.48
2023-01-11T11:30:37.897Z,11.56
2023-01-11T11:33:09.290Z,11.62
2023-01-11T11:35:42.037Z,11.55
2023-01-11T11:38:29.954Z,11.52
2023-01-11T11:40:59.746Z,11.50
2023-01-11T11:43:28.680Z,11.45
2023-01-11T11:45:58.840Z,11.31
2023-01-11T11:48:29.043Z,11.20
2023-01-11T11:51:00.337Z,11.16
2023-01-11T11:53:43.058Z,11.10
2023-01-11T11:56:18.856Z,11.07
2023-01-11T11:58:47.793Z,11.06
2023-01-11T12:01:26.796Z,11.10
2023-01-11T12:03:58.514Z,11.14
2023-01-11T12:06:29.537Z,11.19
2023-01-11T12:08:59.265Z,11.28
2023-01-11T12:11:32.831Z,11.39
2023-01-11T12:14:05.180Z,11.40
2023-01-11T12:16:36.917Z,11.51
2023-01-11T12:19:04.717Z,11.55
2023-01-11T12:21:33.811Z,11.55
2023-01-11T12:24:19.149Z,11.53
2023-01-11T12:26:58.990Z,11.54
2023-01-11T12:29:41.328Z,11.55
2023-01-11T12:32:21.372Z,11.57
2023-01-11T12:35:05.872Z,11.55
2023-01-11T12:38:05.369Z,11.57
2023-01-11T12:40:41.829Z,11.54
2023-01-11T12:43:25.328Z,11.54
2023-01-11T12:46:02.188Z,11.54
2023-01-11T12:48:41.775Z,11.53
2023-01-11T12:51:23.778Z,11.51
2023-01-11T12:54:06.276Z,11.52
2023-01-11T12:56:51.072Z,11.52
2023-01-11T12:59:33.530Z,11.45
2023-01-11T13:02:14.099Z,11.43
2023-01-11T13:05:00.042Z,11.47
2023-01-11T13:07:42.309Z,11.49
2023-01-11T13:10:44.323Z,11.56
2023-01-11T13:13:17.083Z,11.54
2023-01-11T13:15:53.642Z,11.50
2023-01-11T13:18:29.925Z,11.55
2023-01-11T13:21:02.866Z,11.58
2023-01-11T13:23:41.906Z,11.48
2023-01-11T13:26:20.738Z,11.51
2023-01-11T13:28:54.234Z,11.55
2023-01-11T13:31:24.030Z,11.55
2023-01-11T13:33:57.830Z,11.60
2023-01-11T13:36:31.355Z,11.53
2023-01-11T13:39:04.227Z,11.49
2023-01-11T13:41:39.087Z,11.49
2023-01-11T13:44:13.903Z,11.53
2023-01-11T13:46:52.687Z,11.58
2023-01-11T13:49:35.531Z,11.60
2023-01-11T13:52:11.971Z,11.57
2023-01-11T13:54:47.311Z,11.58
2023-01-11T13:57:25.453Z,11.59
2023-01-11T13:59:59.356Z,11.56
2023-01-11T14:02:38.338Z,11.52
2023-01-11T14:05:14.766Z,11.53
2023-01-11T14:08:00.699Z,11.53
2023-01-11T14:10:40.727Z,11.47
2023-01-11T14:13:41.796Z,11.41
2023-01-11T14:16:20.854Z,11.45
2023-01-11T14:18:55.199Z,11.42
2023-01-11T14:21:29.600Z,11.39
2023-01-11T14:23:58.256Z,11.42
2023-01-11T14:26:52.506Z,11.46
2023-01-11T14:29:41.479Z,11.47
2023-01-11T14:32:23.298Z,11.51
2023-01-11T14:35:17.203Z,11.51
2023-01-11T14:38:23.922Z,11.50
2023-01-11T14:41:15.140Z,11.39
2023-01-11T14:44:01.138Z,11.37
2023-01-11T14:46:58.914Z,11.35
2023-01-11T14:49:49.226Z,11.34
2023-01-11T14:52:34.546Z,11.40
2023-01-11T14:55:15.351Z,11.44
2023-01-11T14:57:44.808Z,11.41
2023-01-11T15:00:50.965Z,11.37
2023-01-11T15:03:48.152Z,11.35
2023-01-11T15:06:20.297Z,11.29
2023-01-11T15:08:50.896Z,11.23
2023-01-11T15:11:45.469Z,11.15
2023-01-11T15:14:29.631Z,11.05
2023-01-11T15:17:18.534Z,10.98
2023-01-11T15:19:50.127Z,10.95
2023-01-11T15:22:25.473Z,10.93
2023-01-11T15:24:59.924Z,10.88
2023-01-11T15:27:32.907Z,10.85
2023-01-11T15:30:01.322Z,10.83
2023-01-11T15:32:31.306Z,10.77
2023-01-11T15:35:30.524Z,10.71
2023-01-11T15:38:05.494Z,10.65
2023-01-11T15:40:37.985Z,10.64
2023-01-11T15:43:29.707Z,10.62
2023-01-11T15:46:51.328Z,10.58
2023-01-11T15:50:01.447Z,10.52
2023-01-11T15:53:21.217Z,10.44
2023-01-11T15:56:24.422Z,10.42
2023-01-11T15:59:20.865Z,10.36
2023-01-11T16:02:22.131Z,10.31
2023-01-11T16:04:52.696Z,10.28
2023-01-11T16:07:29.360Z,10.27
2023-01-11T16:10:41.727Z,10.27
2023-01-11T16:13:36.719Z,10.26
2023-01-11T16:16:12.238Z,10.24
2023-01-11T16:18:43.883Z,10.25
2023-01-11T16:21:19.486Z,10.20
2023-01-11T16:23:47.489Z,10.18
2023-01-11T16:26:20.710Z,10.19
2023-01-11T16:28:52.041Z,10.19
2023-01-11T16:31:20.497Z,10.20
2023-01-11T16:33:49.835Z,10.18
2023-01-11T16:36:20.983Z,10.17
2023-01-11T16:39:01.599Z,10.15
2023-01-11T16:41:36.852Z,10.13
2023-01-11T16:44:09.016Z,10.16
2023-01-11T16:47:07.696Z,10.17
2023-01-11T16:49:35.645Z,10.19
2023-01-11T16:52:40.064Z,10.16
2023-01-11T16:55:17.325Z,10.08
2023-01-11T16:57:48.767Z,10.05
2023-01-11T17:00:25.288Z,10.03
2023-01-11T17:03:02.949Z,10.01
2023-01-11T17:05:30.760Z,10.02
2023-01-11T17:07:58.536Z,9.94
2023-01-11T17:10:29.271Z,9.94
2023-01-11T17:13:52.115Z,9.94
2023-01-11T17:16:24.857Z,9.91
2023-01-11T17:18:54.448Z,9.89
2023-01-11T17:21:28.777Z,9.89
2023-01-11T17:24:00.878Z,9.87
2023-01-11T17:26:33.797Z,9.85
2023-01-11T17:29:02.007Z,9.85
2023-01-11T17:31:34.111Z,9.82
2023-01-11T17:34:05.338Z,9.81
2023-01-11T17:36:34.052Z,9.82
2023-01-11T17:39:03.872Z,9.79
2023-01-11T17:41:49.867Z,9.76
2023-01-11T17:44:38.396Z,9.73
2023-01-11T17:47:09.352Z,9.75
2023-01-11T17:49:39.034Z,9.79
2023-01-11T17:52:12.004Z,9.81
2023-01-11T17:54:39.927Z,9.89
2023-01-11T17:57:07.972Z,9.96
2023-01-11T17:59:35.867Z,9.99
2023-01-11T18:02:12.225Z,9.95
2023-01-11T18:04:40.909Z,9.90
2023-01-11T18:07:15.763Z,9.84
2023-01-11T18:09:47.124Z,9.88
2023-01-11T18:12:18.321Z,9.90
2023-01-11T18:14:51.719Z,9.89
2023-01-11T18:17:36.225Z,9.80
2023-01-11T18:20:25.866Z,9.79
2023-01-11T18:23:04.484Z,9.75
2023-01-11T18:25:35.064Z,9.68
2023-01-11T18:28:34.083Z,9.68
2023-01-11T18:31:02.559Z,9.73
2023-01-11T18:33:34.965Z,9.65
2023-01-11T18:36:05.322Z,9.58
2023-01-11T18:38:34.861Z,9.58
2023-01-11T18:41:26.506Z,9.57
2023-01-11T18:43:55.496Z,9.61
2023-01-11T18:46:23.592Z,9.59
2023-01-11T18:48:53.139Z,9.58
2023-01-11T18:51:29.209Z,9.52
2023-01-11T18:53:56.935Z,9.51
2023-01-11T18:56:24.736Z,9.54
2023-01-11T18:58:52.565Z,9.56
2023-01-11T19:01:20.595Z,9.55
2023-01-11T19:03:48.964Z,9.52
2023-01-11T19:06:21.163Z,9.52
2023-01-11T19:08:48.959Z,9.52
2023-01-11T19:11:17.019Z,9.47
2023-01-11T19:13:46.720Z,9.47
2023-01-11T19:16:16.891Z,9.42
2023-01-11T19:18:45.881Z,9.52
2023-01-11T19:21:14.254Z,9.60
2023-01-11T19:23:43.474Z,9.63
2023-01-11T19:26:11.443Z,9.67
2023-01-11T19:28:39.369Z,9.69
2023-01-11T19:31:08.117Z,9.69
2023-01-11T19:33:36.065Z,9.68
2023-01-11T19:36:06.803Z,9.66
2023-01-11T19:38:34.797Z,9.69
2023-01-11T19:41:07.443Z,9.68
2023-01-11T19:43:35.481Z,9.72
2023-01-11T19:46:04.099Z,9.74
2023-01-11T19:48:32.833Z,9.74
2023-01-11T19:51:05.593Z,9.84
2023-01-11T19:53:33.808Z,9.78
2023-01-11T19:56:03.142Z,9.82
2023-01-11T19:58:33.391Z,9.80
2023-01-11T20:01:02.305Z,9.83
2023-01-11T20:03:30.140Z,9.90
2023-01-11T20:06:07.635Z,9.90
2023-01-11T20:08:38.550Z,9.84
2023-01-11T20:11:07.268Z,9.83
2023-01-11T20:13:36.623Z,9.86
2023-01-11T20:16:08.971Z,9.89
2023-01-11T20:18:36.973Z,9.87
2023-01-11T20:21:07.839Z,9.92
2023-01-11T20:23:36.173Z,9.95
2023-01-11T20:26:08.715Z,9.92
2023-01-11T20:28:37.733Z,9.94
2023-01-11T20:31:07.877Z,9.97
2023-01-11T20:33:35.753Z,9.97
2023-01-11T20:36:11.136Z,9.91
2023-01-11T20:38:41.847Z,9.89
2023-01-11T20:41:10.981Z,9.90
2023-01-11T20:43:40.917Z,9.93
2023-01-11T20:46:08.744Z,9.98
2023-01-11T20:48:36.708Z,10.04
2023-01-11T20:51:04.861Z,10.08
2023-01-11T20:53:32.692Z,10.04
2023-01-11T20:56:00.440Z,10.01
2023-01-11T20:58:28.210Z,10.08
2023-01-11T21:01:04.519Z,10.07
2023-01-11T21:03:32.542Z,10.08
2023-01-11T21:06:03.039Z,9.97
2023-01-11T21:08:31.001Z,9.90
2023-01-11T21:11:05.060Z,9.87
2023-01-11T21:13:32.979Z,9.84
2023-01-11T21:16:08.810Z,9.90
2023-01-11T21:18:37.398Z,9.88
2023-01-11T21:21:05.733Z,9.85
2023-01-11T21:23:33.497Z,9.73
2023-01-11T21:26:01.218Z,9.80
2023-01-11T21:28:28.967Z,9.74
2023-01-11T21:31:02.241Z,9.81
2023-01-11T21:33:31.593Z,9.78
2023-01-11T21:36:03.227Z,9.85
2023-01-11T21:38:34.703Z,9.92
2023-01-11T21:41:06.895Z,9.89
2023-01-11T21:43:34.853Z,9.84
2023-01-11T21:46:03.800Z,9.85
2023-01-11T21:48:32.971Z,9.91
2023-01-11T21:51:01.169Z,9.96
2023-01-11T21:53:32.073Z,9.95
2023-01-11T21:56:03.104Z,9.96
2023-01-11T21:58:34.350Z,9.90
2023-01-11T22:01:10.583Z,9.99
2023-01-11T22:03:42.174Z,9.93
2023-01-11T22:06:10.562Z,9.98
2023-01-11T22:08:39.773Z,10.07
2023-01-11T22:11:14.377Z,10.00
2023-01-11T22:13:55.145Z,10.00
2023-01-11T22:16:29.692Z,10.03
2023-01-11T22:18:59.376Z,10.04
2023-01-11T22:21:27.522Z,10.09
2023-01-11T22:23:56.590Z,10.02
2023-01-11T22:26:25.137Z,9.93
2023-01-11T22:29:15.145Z,9.98
2023-01-11T22:31:45.667Z,9.97
2023-01-11T22:34:16.338Z,9.87
2023-01-11T22:36:45.306Z,9.86
2023-01-11T22:39:14.167Z,9.90
2023-01-11T22:41:42.003Z,9.86
2023-01-11T22:44:10.838Z,9.79
2023-01-11T22:46:39.252Z,9.84
2023-01-11T22:49:07.561Z,9.81
2023-01-11T22:51:37.059Z,9.74
2023-01-11T22:54:05.456Z,9.72
2023-01-11T22:56:33.530Z,9.67
2023-01-11T22:59:02.013Z,9.72
2023-01-11T23:01:32.379Z,9.64
2023-01-11T23:04:00.774Z,9.57
2023-01-11T23:06:30.219Z,9.54
2023-01-11T23:09:00.197Z,9.51
2023-01-11T23:11:47.142Z,9.49
2023-01-11T23:14:16.923Z,9.40
2023-01-11T23:16:45.276Z,9.46
2023-01-11T23:19:14.693Z,9.40
2023-01-11T23:21:43.573Z,9.37
2023-01-11T23:24:14.009Z,9.34
2023-01-11T23:26:41.936Z,9.32
2023-01-11T23:29:09.651Z,9.28
2023-01-11T23:31:37.424Z,9.24
2023-01-11T23:34:06.938Z,9.25
2023-01-11T23:36:36.538Z,9.23
2023-01-11T23:39:05.273Z,9.24
2023-01-11T23:41:51.999Z,9.26
2023-01-11T23:44:19.847Z,9.21
2023-01-11T23:47:05.228Z,9.26
2023-01-11T23:49:33.446Z,9.24
2023-01-11T23:52:14.090Z,9.27
2023-01-11T23:54:42.821Z,9.22
2023-01-11T23:57:12.598Z,9.18
2023-01-11T23:59:40.455Z,9.22
